sensor_id;sensor_type;location;lat;lon;timestamp;pressure;altitude;pressure_sealevel;temperature;humidity
67697;BME280;54486;51.442;6.778;2023-05-29T00:01:06;101893.47;;;15.36;62.20
67697;BME280;54486;51.442;6.778;2023-05-29T00:03:35;101897.00;;;15.35;62.65
67697;BME280;54486;51.442;6.778;2023-05-29T00:06:03;101890.91;;;15.30;63.49
67697;BME280;54486;51.442;6.778;2023-05-29T00:08:30;101898.84;;;15.27;63.32
67697;BME280;54486;51.442;6.778;2023-05-29T00:10:57;101905.03;;;15.22;63.46
67697;BME280;54486;51.442;6.778;2023-05-29T00:13:25;101895.41;;;15.18;64.43
67697;BME280;54486;51.442;6.778;2023-05-29T00:15:52;101898.13;;;15.09;64.40
67697;BME280;54486;51.442;6.778;2023-05-29T00:18:20;101899.00;;;15.06;64.91
67697;BME280;54486;51.442;6.778;2023-05-29T00:20:48;101897.28;;;15.02;64.93
67697;BME280;54486;51.442;6.778;2023-05-29T00:23:15;101900.81;;;14.98;65.36
67697;BME280;54486;51.442;6.778;2023-05-29T00:25:43;101901.75;;;14.90;65.96
67697;BME280;54486;51.442;6.778;2023-05-29T00:28:11;101907.88;;;14.87;65.72
67697;BME280;54486;51.442;6.778;2023-05-29T00:30:39;101913.16;;;14.84;65.77
67697;BME280;54486;51.442;6.778;2023-05-29T00:33:06;101910.56;;;14.82;66.43
67697;BME280;54486;51.442;6.778;2023-05-29T00:35:35;101919.34;;;14.78;66.64
67697;BME280;54486;51.442;6.778;2023-05-29T00:38:02;101916.75;;;14.71;66.72
67697;BME280;54486;51.442;6.778;2023-05-29T00:40:30;101917.66;;;14.68;67.28
67697;BME280;54486;51.442;6.778;2023-05-29T00:42:57;101923.81;;;14.63;67.15
67697;BME280;54486;51.442;6.778;2023-05-29T00:45:25;101938.72;;;14.62;67.60
67697;BME280;54486;51.442;6.778;2023-05-29T00:47:54;101937.88;;;14.53;67.97
67697;BME280;54486;51.442;6.778;2023-05-29T00:50:21;101937.91;;;14.47;68.92
67697;BME280;54486;51.442;6.778;2023-05-29T00:52:50;101939.69;;;14.45;69.44
67697;BME280;54486;51.442;6.778;2023-05-29T00:55:18;101942.31;;;14.40;69.52
67697;BME280;54486;51.442;6.778;2023-05-29T00:57:46;101944.09;;;14.32;70.26
67697;BME280;54486;51.442;6.778;2023-05-29T01:00:15;101945.84;;;14.24;71.47
67697;BME280;54486;51.442;6.778;2023-05-29T01:02:44;101943.25;;;14.22;71.77
67697;BME280;54486;51.442;6.778;2023-05-29T01:05:13;101946.78;;;14.12;71.68
67697;BME280;54486;51.442;6.778;2023-05-29T01:07:42;101943.28;;;14.04;72.17
67697;BME280;54486;51.442;6.778;2023-05-29T01:10:11;101939.81;;;14.02;72.34
67697;BME280;54486;51.442;6.778;2023-05-29T01:12:49;101950.31;;;14.02;72.65
67697;BME280;54486;51.442;6.778;2023-05-29T01:15:37;101945.09;;;13.93;73.53
67697;BME280;54486;51.442;6.778;2023-05-29T01:18:34;101939.84;;;13.87;73.79
67697;BME280;54486;51.442;6.778;2023-05-29T01:26:36;101957.38;;;13.64;74.07
67697;BME280;54486;51.442;6.778;2023-05-29T01:29:06;101965.25;;;13.62;73.03
67697;BME280;54486;51.442;6.778;2023-05-29T01:31:35;101964.41;;;13.56;71.75
67697;BME280;54486;51.442;6.778;2023-05-29T01:34:05;101969.59;;;13.47;70.93
67697;BME280;54486;51.442;6.778;2023-05-29T01:36:32;101958.25;;;13.37;71.06
67697;BME280;54486;51.442;6.778;2023-05-29T01:39:00;101960.88;;;13.33;70.27
67697;BME280;54486;51.442;6.778;2023-05-29T01:41:29;101963.50;;;13.25;69.93
67697;BME280;54486;51.442;6.778;2023-05-29T01:43:58;101962.63;;;13.18;70.09
67697;BME280;54486;51.442;6.778;2023-05-29T01:46:26;101967.00;;;13.16;70.07
67697;BME280;54486;51.442;6.778;2023-05-29T01:48:53;101962.63;;;13.15;70.26
67697;BME280;54486;51.442;6.778;2023-05-29T01:51:22;101983.56;;;13.12;70.76
67697;BME280;54486;51.442;6.778;2023-05-29T01:53:50;101976.56;;;13.11;70.90
67697;BME280;54486;51.442;6.778;2023-05-29T01:56:17;101973.09;;;13.09;71.33
67697;BME280;54486;51.442;6.778;2023-05-29T01:58:45;101976.53;;;13.02;71.72
67697;BME280;54486;51.442;6.778;2023-05-29T02:01:13;101980.91;;;13.00;71.74
67697;BME280;54486;51.442;6.778;2023-05-29T02:03:40;101976.53;;;12.99;72.21
67697;BME280;54486;51.442;6.778;2023-05-29T02:06:07;101974.78;;;12.95;72.75
67697;BME280;54486;51.442;6.778;2023-05-29T02:08:34;101975.63;;;12.90;73.38
67697;BME280;54486;51.442;6.778;2023-05-29T02:11:01;101981.75;;;12.84;72.80
67697;BME280;54486;51.442;6.778;2023-05-29T02:13:28;101990.44;;;12.77;73.15
67697;BME280;54486;51.442;6.778;2023-05-29T02:15:56;101992.19;;;12.69;73.19
67697;BME280;54486;51.442;6.778;2023-05-29T02:18:23;101986.06;;;12.65;73.35
67697;BME280;54486;51.442;6.778;2023-05-29T02:20:50;101987.78;;;12.65;73.60
67697;BME280;54486;51.442;6.778;2023-05-29T02:23:17;101983.41;;;12.64;73.23
67697;BME280;54486;51.442;6.778;2023-05-29T02:25:46;101975.56;;;12.62;72.84
67697;BME280;54486;51.442;6.778;2023-05-29T02:28:14;101980.78;;;12.58;73.24
67697;BME280;54486;51.442;6.778;2023-05-29T02:30:42;101992.13;;;12.54;73.76
67697;BME280;54486;51.442;6.778;2023-05-29T02:33:09;101986.84;;;12.51;73.22
67697;BME280;54486;51.442;6.778;2023-05-29T02:35:37;101984.25;;;12.49;73.72
67697;BME280;54486;51.442;6.778;2023-05-29T02:38:04;101989.47;;;12.49;73.61
67697;BME280;54486;51.442;6.778;2023-05-29T02:40:31;101990.34;;;12.44;73.95
67697;BME280;54486;51.442;6.778;2023-05-29T02:42:58;101985.09;;;12.42;74.07
67697;BME280;54486;51.442;6.778;2023-05-29T02:45:24;101991.19;;;12.37;73.92
67697;BME280;54486;51.442;6.778;2023-05-29T02:47:52;101989.44;;;12.37;73.99
67697;BME280;54486;51.442;6.778;2023-05-29T02:50:19;101996.38;;;12.35;73.84
67697;BME280;54486;51.442;6.778;2023-05-29T02:52:46;102000.78;;;12.35;74.12
67697;BME280;54486;51.442;6.778;2023-05-29T02:55:13;102001.63;;;12.34;73.78
67697;BME280;54486;51.442;6.778;2023-05-29T02:57:40;102002.47;;;12.33;74.09
67697;BME280;54486;51.442;6.778;2023-05-29T03:00:08;102002.47;;;12.30;73.45
67697;BME280;54486;51.442;6.778;2023-05-29T03:02:38;102000.72;;;12.29;73.62
67697;BME280;54486;51.442;6.778;2023-05-29T03:05:06;102004.19;;;12.25;74.19
67697;BME280;54486;51.442;6.778;2023-05-29T03:07:34;102004.19;;;12.22;74.13
67697;BME280;54486;51.442;6.778;2023-05-29T03:10:02;102008.50;;;12.19;74.78
67697;BME280;54486;51.442;6.778;2023-05-29T03:12:30;102000.63;;;12.13;73.99
67697;BME280;54486;51.442;6.778;2023-05-29T03:14:57;102018.09;;;12.16;74.53
67697;BME280;54486;51.442;6.778;2023-05-29T03:17:26;102012.88;;;12.14;75.01
67697;BME280;54486;51.442;6.778;2023-05-29T03:19:53;102011.97;;;12.12;75.21
67697;BME280;54486;51.442;6.778;2023-05-29T03:22:20;102011.94;;;12.08;75.29
67697;BME280;54486;51.442;6.778;2023-05-29T03:24:47;102012.78;;;12.02;75.62
67697;BME280;54486;51.442;6.778;2023-05-29T03:27:14;102007.53;;;11.99;76.32
67697;BME280;54486;51.442;6.778;2023-05-29T03:29:41;102015.31;;;11.89;76.40
67697;BME280;54486;51.442;6.778;2023-05-29T03:32:08;102016.19;;;11.89;76.58
67697;BME280;54486;51.442;6.778;2023-05-29T03:34:35;102007.44;;;11.87;76.66
67697;BME280;54486;51.442;6.778;2023-05-29T03:37:03;102009.19;;;11.85;77.42
67697;BME280;54486;51.442;6.778;2023-05-29T03:39:31;102010.00;;;11.78;77.66
67697;BME280;54486;51.442;6.778;2023-05-29T03:41:58;102009.13;;;11.76;77.64
67697;BME280;54486;51.442;6.778;2023-05-29T03:44:25;102004.75;;;11.77;77.96
67697;BME280;54486;51.442;6.778;2023-05-29T03:46:53;102003.88;;;11.73;77.78
67697;BME280;54486;51.442;6.778;2023-05-29T03:49:20;102010.84;;;11.74;77.76
67697;BME280;54486;51.442;6.778;2023-05-29T03:51:49;102021.31;;;11.74;77.97
67697;BME280;54486;51.442;6.778;2023-05-29T03:54:16;102025.63;;;11.72;78.30
67697;BME280;54486;51.442;6.778;2023-05-29T03:56:44;102032.53;;;11.68;77.70
67697;BME280;54486;51.442;6.778;2023-05-29T03:59:11;102035.16;;;11.67;77.97
67697;BME280;54486;51.442;6.778;2023-05-29T04:01:38;102032.53;;;11.64;78.41
67697;BME280;54486;51.442;6.778;2023-05-29T04:04:07;102031.63;;;11.65;78.04
67697;BME280;54486;51.442;6.778;2023-05-29T04:06:34;102034.28;;;11.66;78.18
67697;BME280;54486;51.442;6.778;2023-05-29T04:09:05;102036.88;;;11.65;78.21
67697;BME280;54486;51.442;6.778;2023-05-29T04:11:35;102035.16;;;11.67;78.32
67697;BME280;54486;51.442;6.778;2023-05-29T04:14:02;102037.75;;;11.65;79.00
67697;BME280;54486;51.442;6.778;2023-05-29T04:16:29;102047.34;;;11.68;78.35
67697;BME280;54486;51.442;6.778;2023-05-29T04:18:57;102045.63;;;11.67;78.63
67697;BME280;54486;51.442;6.778;2023-05-29T04:21:24;102049.09;;;11.66;78.78
67697;BME280;54486;51.442;6.778;2023-05-29T04:23:52;102044.75;;;11.66;78.91
67697;BME280;54486;51.442;6.778;2023-05-29T04:26:22;102049.09;;;11.66;79.35
67697;BME280;54486;51.442;6.778;2023-05-29T04:28:52;102038.56;;;11.60;79.03
67697;BME280;54486;51.442;6.778;2023-05-29T04:31:24;102039.47;;;11.65;79.48
67697;BME280;54486;51.442;6.778;2023-05-29T04:33:53;102042.13;;;11.68;78.64
67697;BME280;54486;51.442;6.778;2023-05-29T04:36:23;102049.19;;;11.75;79.19
67697;BME280;54486;51.442;6.778;2023-05-29T04:38:53;102041.34;;;11.75;79.67
67697;BME280;54486;51.442;6.778;2023-05-29T04:41:21;102045.69;;;11.73;79.12
67697;BME280;54486;51.442;6.778;2023-05-29T04:43:55;102065.75;;;11.76;79.31
67697;BME280;54486;51.442;6.778;2023-05-29T04:46:23;102058.78;;;11.75;79.15
67697;BME280;54486;51.442;6.778;2023-05-29T04:48:51;102064.91;;;11.78;79.10
67697;BME280;54486;51.442;6.778;2023-05-29T04:51:20;102065.84;;;11.83;79.28
67697;BME280;54486;51.442;6.778;2023-05-29T04:53:50;102071.91;;;11.82;79.67
67697;BME280;54486;51.442;6.778;2023-05-29T04:56:19;102066.69;;;11.82;79.82
67697;BME280;54486;51.442;6.778;2023-05-29T04:58:48;102070.16;;;11.81;79.34
67697;BME280;54486;51.442;6.778;2023-05-29T05:01:16;102078.03;;;11.83;80.16
67697;BME280;54486;51.442;6.778;2023-05-29T05:03:44;102084.16;;;11.86;79.73
67697;BME280;54486;51.442;6.778;2023-05-29T05:06:12;102080.56;;;11.75;79.88
67697;BME280;54486;51.442;6.778;2023-05-29T05:08:39;102085.84;;;11.81;79.89
67697;BME280;54486;51.442;6.778;2023-05-29T05:11:07;102089.41;;;11.86;80.15
67697;BME280;54486;51.442;6.778;2023-05-29T05:13:35;102085.06;;;11.87;80.10
67697;BME280;54486;51.442;6.778;2023-05-29T05:16:02;102076.31;;;11.83;80.25
67697;BME280;54486;51.442;6.778;2023-05-29T05:18:30;102077.19;;;11.88;80.30
67697;BME280;54486;51.442;6.778;2023-05-29T05:20:58;102077.22;;;11.91;79.98
67697;BME280;54486;51.442;6.778;2023-05-29T05:23:25;102077.28;;;11.97;80.17
67697;BME280;54486;51.442;6.778;2023-05-29T05:25:52;102073.84;;;12.04;79.97
67697;BME280;54486;51.442;6.778;2023-05-29T05:28:19;102073.84;;;12.04;79.71
67697;BME280;54486;51.442;6.778;2023-05-29T05:30:47;102068.66;;;12.10;80.55
67697;BME280;54486;51.442;6.778;2023-05-29T05:33:14;102076.53;;;12.16;80.93
67697;BME280;54486;51.442;6.778;2023-05-29T05:35:41;102077.44;;;12.20;78.58
67697;BME280;54486;51.442;6.778;2023-05-29T05:38:08;102082.69;;;12.22;78.10
67697;BME280;54486;51.442;6.778;2023-05-29T05:40:35;102079.22;;;12.26;77.73
67697;BME280;54486;51.442;6.778;2023-05-29T05:43:02;102080.16;;;12.34;78.18
67697;BME280;54486;51.442;6.778;2023-05-29T05:45:30;102088.03;;;12.37;77.65
67697;BME280;54486;51.442;6.778;2023-05-29T05:47:57;102082.78;;;12.37;76.65
67697;BME280;54486;51.442;6.778;2023-05-29T05:50:25;102072.34;;;12.43;77.32
67697;BME280;54486;51.442;6.778;2023-05-29T05:52:52;102070.63;;;12.51;77.11
67697;BME280;54486;51.442;6.778;2023-05-29T05:55:19;102070.72;;;12.60;77.35
67697;BME280;54486;51.442;6.778;2023-05-29T05:57:46;102070.75;;;12.66;77.37
67697;BME280;54486;51.442;6.778;2023-05-29T06:00:14;102066.38;;;12.71;74.88
67697;BME280;54486;51.442;6.778;2023-05-29T06:02:41;102063.78;;;12.77;75.18
67697;BME280;54486;51.442;6.778;2023-05-29T06:05:09;102069.94;;;12.84;74.50
67697;BME280;54486;51.442;6.778;2023-05-29T06:07:38;102073.44;;;12.86;73.05
67697;BME280;54486;51.442;6.778;2023-05-29T06:10:06;102075.19;;;12.85;72.10
67697;BME280;54486;51.442;6.778;2023-05-29T06:12:34;102063.81;;;12.86;72.28
67697;BME280;54486;51.442;6.778;2023-05-29T06:15:06;102083.06;;;12.91;72.54
67697;BME280;54486;51.442;6.778;2023-05-29T06:17:33;102087.47;;;12.95;73.13
67697;BME280;54486;51.442;6.778;2023-05-29T06:20:02;102083.09;;;13.00;72.37
67697;BME280;54486;51.442;6.778;2023-05-29T06:22:31;102097.13;;;13.08;71.52
67697;BME280;54486;51.442;6.778;2023-05-29T06:24:59;102099.75;;;13.11;70.92
67697;BME280;54486;51.442;6.778;2023-05-29T06:27:30;102100.66;;;13.16;70.51
67697;BME280;54486;51.442;6.778;2023-05-29T06:29:57;102099.81;;;13.23;70.90
67697;BME280;54486;51.442;6.778;2023-05-29T06:32:25;102101.53;;;13.24;69.46
67697;BME280;54486;51.442;6.778;2023-05-29T06:34:54;102100.69;;;13.29;69.46
67697;BME280;54486;51.442;6.778;2023-05-29T06:37:22;102098.94;;;13.31;68.93
67697;BME280;54486;51.442;6.778;2023-05-29T06:39:49;102099.81;;;13.34;69.14
67697;BME280;54486;51.442;6.778;2023-05-29T06:42:16;102092.88;;;13.39;68.90
67697;BME280;54486;51.442;6.778;2023-05-29T06:44:44;102088.50;;;13.43;68.76
67697;BME280;54486;51.442;6.778;2023-05-29T06:47:11;102079.78;;;13.53;69.48
67697;BME280;54486;51.442;6.778;2023-05-29T06:49:38;102088.53;;;13.61;69.11
67697;BME280;54486;51.442;6.778;2023-05-29T06:52:06;102086.75;;;13.66;68.20
67697;BME280;54486;51.442;6.778;2023-05-29T06:54:33;102078.94;;;13.87;67.53
67697;BME280;54486;51.442;6.778;2023-05-29T06:57:00;102090.28;;;13.86;68.00
67697;BME280;54486;51.442;6.778;2023-05-29T06:59:37;102090.28;;;13.86;67.03
67697;BME280;54486;51.442;6.778;2023-05-29T07:02:06;102091.16;;;13.90;67.25
67697;BME280;54486;51.442;6.778;2023-05-29T07:04:34;102099.03;;;13.97;68.04
67697;BME280;54486;51.442;6.778;2023-05-29T07:07:02;102100.75;;;14.04;68.06
67697;BME280;54486;51.442;6.778;2023-05-29T07:09:29;102097.28;;;14.11;67.72
67697;BME280;54486;51.442;6.778;2023-05-29T07:11:56;102090.28;;;14.16;67.59
67697;BME280;54486;51.442;6.778;2023-05-29T07:14:24;102090.25;;;14.28;68.34
67697;BME280;54486;51.442;6.778;2023-05-29T07:16:51;102093.75;;;14.27;67.43
67697;BME280;54486;51.442;6.778;2023-05-29T07:19:19;102096.41;;;14.29;68.28
67697;BME280;54486;51.442;6.778;2023-05-29T07:21:48;102099.03;;;14.34;67.82
67697;BME280;54486;51.442;6.778;2023-05-29T07:24:16;102099.00;;;14.40;68.55
67697;BME280;54486;51.442;6.778;2023-05-29T07:26:45;102104.25;;;14.43;67.67
67697;BME280;54486;51.442;6.778;2023-05-29T07:29:13;102100.75;;;14.47;67.66
67697;BME280;54486;51.442;6.778;2023-05-29T07:31:41;102099.88;;;14.46;67.84
67697;BME280;54486;51.442;6.778;2023-05-29T07:34:08;102109.53;;;14.52;67.24
67697;BME280;54486;51.442;6.778;2023-05-29T07:36:56;102107.75;;;14.51;66.80
67697;BME280;54486;51.442;6.778;2023-05-29T07:39:23;102111.25;;;14.50;66.85
67697;BME280;54486;51.442;6.778;2023-05-29T07:41:50;102118.25;;;14.54;67.33
67697;BME280;54486;51.442;6.778;2023-05-29T07:44:17;102122.63;;;14.56;67.65
67697;BME280;54486;51.442;6.778;2023-05-29T07:46:46;102111.25;;;14.56;67.09
67697;BME280;54486;51.442;6.778;2023-05-29T07:49:14;102116.50;;;14.56;66.76
67697;BME280;54486;51.442;6.778;2023-05-29T07:51:42;102125.25;;;14.64;67.08
67697;BME280;54486;51.442;6.778;2023-05-29T07:54:09;102126.09;;;14.72;67.00
67697;BME280;54486;51.442;6.778;2023-05-29T07:56:37;102128.72;;;14.70;65.95
67697;BME280;54486;51.442;6.778;2023-05-29T07:59:05;102131.31;;;14.75;66.26
67697;BME280;54486;51.442;6.778;2023-05-29T08:01:35;102133.94;;;14.78;65.69
67697;BME280;54486;51.442;6.778;2023-05-29T08:04:02;102127.81;;;14.83;65.75
67697;BME280;54486;51.442;6.778;2023-05-29T08:06:30;102136.53;;;14.96;66.91
67697;BME280;54486;51.442;6.778;2023-05-29T08:09:02;102130.34;;;15.06;66.48
67697;BME280;54486;51.442;6.778;2023-05-29T08:11:29;102132.09;;;15.07;65.29
67697;BME280;54486;51.442;6.778;2023-05-29T08:13:57;102137.34;;;15.10;65.45
67697;BME280;54486;51.442;6.778;2023-05-29T08:16:25;102143.47;;;15.12;65.35
67697;BME280;54486;51.442;6.778;2023-05-29T08:18:55;102142.59;;;15.07;64.59
67697;BME280;54486;51.442;6.778;2023-05-29T08:21:23;102138.22;;;15.11;65.60
67697;BME280;54486;51.442;6.778;2023-05-29T08:23:50;102134.69;;;15.15;65.38
67697;BME280;54486;51.442;6.778;2023-05-29T08:26:18;102142.53;;;15.25;66.03
67697;BME280;54486;51.442;6.778;2023-05-29T08:28:46;102133.72;;;15.32;66.03
67697;BME280;54486;51.442;6.778;2023-05-29T08:31:13;102141.59;;;15.40;64.41
67697;BME280;54486;51.442;6.778;2023-05-29T08:33:40;102139.75;;;15.54;66.15
67697;BME280;54486;51.442;6.778;2023-05-29T08:36:08;102142.38;;;15.59;64.59
67697;BME280;54486;51.442;6.778;2023-05-29T08:38:37;102143.16;;;15.70;63.96
67697;BME280;54486;51.442;6.778;2023-05-29T08:41:04;102141.41;;;15.72;64.05
67697;BME280;54486;51.442;6.778;2023-05-29T08:43:32;102144.03;;;15.75;63.47
67697;BME280;54486;51.442;6.778;2023-05-29T08:46:01;102145.78;;;15.79;63.39
67697;BME280;54486;51.442;6.778;2023-05-29T08:48:30;102144.06;;;15.72;62.45
67697;BME280;54486;51.442;6.778;2023-05-29T08:50:59;102142.28;;;15.74;64.35
67697;BME280;54486;51.442;6.778;2023-05-29T08:53:31;102146.59;;;15.84;63.98
67697;BME280;54486;51.442;6.778;2023-05-29T08:55:59;102151.78;;;15.93;63.21
67697;BME280;54486;51.442;6.778;2023-05-29T08:58:29;102144.72;;;16.00;63.16
67697;BME280;54486;51.442;6.778;2023-05-29T09:00:57;102156.97;;;16.07;62.55
67697;BME280;54486;51.442;6.778;2023-05-29T09:03:26;102146.44;;;16.07;62.00
67697;BME280;54486;51.442;6.778;2023-05-29T09:05:58;102144.69;;;16.04;62.44
67697;BME280;54486;51.442;6.778;2023-05-29T09:08:26;102154.28;;;16.14;62.34
67697;BME280;54486;51.442;6.778;2023-05-29T09:10:55;102152.53;;;16.10;61.87
67697;BME280;54486;51.442;6.778;2023-05-29T09:13:25;102157.69;;;16.22;62.29
67697;BME280;54486;51.442;6.778;2023-05-29T09:15:58;102163.78;;;16.30;62.36
67697;BME280;54486;51.442;6.778;2023-05-29T09:18:31;102166.44;;;16.27;61.25
67697;BME280;54486;51.442;6.778;2023-05-29T09:20:59;102169.91;;;16.32;61.13
67697;BME280;54486;51.442;6.778;2023-05-29T09:23:29;102154.91;;;16.40;62.77
67697;BME280;54486;51.442;6.778;2023-05-29T09:25:57;102167.97;;;16.50;61.75
67697;BME280;54486;51.442;6.778;2023-05-29T09:28:25;102160.97;;;16.55;61.09
67697;BME280;54486;51.442;6.778;2023-05-29T09:30:56;102164.50;;;16.48;60.50
67697;BME280;54486;51.442;6.778;2023-05-29T09:33:25;102167.09;;;16.55;62.68
67697;BME280;54486;51.442;6.778;2023-05-29T09:35:54;102166.13;;;16.64;61.11
67697;BME280;54486;51.442;6.778;2023-05-29T09:38:21;102172.22;;;16.70;61.55
67697;BME280;54486;51.442;6.778;2023-05-29T09:40:52;102165.97;;;16.79;60.93
67697;BME280;54486;51.442;6.778;2023-05-29T09:43:22;102171.22;;;16.79;60.52
67697;BME280;54486;51.442;6.778;2023-05-29T09:45:50;102170.34;;;16.78;60.60
67697;BME280;54486;51.442;6.778;2023-05-29T09:48:22;102158.16;;;16.71;59.48
67697;BME280;54486;51.442;6.778;2023-05-29T09:50:50;102161.53;;;16.82;60.70
67697;BME280;54486;51.442;6.778;2023-05-29T09:53:22;102157.91;;;16.92;60.04
67697;BME280;54486;51.442;6.778;2023-05-29T09:55:52;102164.81;;;17.01;59.79
67697;BME280;54486;51.442;6.778;2023-05-29T09:58:22;102162.09;;;17.10;60.25
67697;BME280;54486;51.442;6.778;2023-05-29T10:00:51;102167.31;;;17.16;60.01
67697;BME280;54486;51.442;6.778;2023-05-29T10:03:19;102161.13;;;17.19;58.96
67697;BME280;54486;51.442;6.778;2023-05-29T10:05:54;102166.34;;;17.22;58.67
67697;BME280;54486;51.442;6.778;2023-05-29T10:08:25;102160.13;;;17.27;58.08
67697;BME280;54486;51.442;6.778;2023-05-29T10:11:02;102160.78;;;17.43;58.89
67697;BME280;54486;51.442;6.778;2023-05-29T10:13:35;102159.75;;;17.55;58.49
67697;BME280;54486;51.442;6.778;2023-05-29T10:16:03;102157.94;;;17.60;56.69
67697;BME280;54486;51.442;6.778;2023-05-29T10:18:39;102157.94;;;17.60;57.23
67697;BME280;54486;51.442;6.778;2023-05-29T10:21:12;102152.63;;;17.63;58.09
67697;BME280;54486;51.442;6.778;2023-05-29T10:23:40;102154.47;;;17.58;57.71
67697;BME280;54486;51.442;6.778;2023-05-29T10:26:21;102144.47;;;17.78;57.69
67697;BME280;54486;51.442;6.778;2023-05-29T10:29:24;102145.13;;;17.92;56.73
67697;BME280;54486;51.442;6.778;2023-05-29T10:35:01;102143.84;;;18.16;56.68
67697;BME280;54486;51.442;6.778;2023-05-29T10:37:41;102130.56;;;18.20;55.77
67697;BME280;54486;51.442;6.778;2023-05-29T10:40:10;102138.28;;;18.34;55.61
67697;BME280;54486;51.442;6.778;2023-05-29T10:42:49;102138.91;;;18.49;55.41
67697;BME280;54486;51.442;6.778;2023-05-29T10:50:45;102148.81;;;18.83;53.81
67697;BME280;54486;51.442;6.778;2023-05-29T10:53:17;102134.69;;;18.85;53.71
67697;BME280;54486;51.442;6.778;2023-05-29T10:55:46;102127.59;;;18.86;53.12
67697;BME280;54486;51.442;6.778;2023-05-29T10:58:21;102120.13;;;19.06;54.98
67697;BME280;54486;51.442;6.778;2023-05-29T11:00:54;102129.53;;;19.21;52.98
67697;BME280;54486;51.442;6.778;2023-05-29T11:03:33;102121.41;;;19.28;52.32
67697;BME280;54486;51.442;6.778;2023-05-29T11:06:05;102119.41;;;19.39;53.06
67697;BME280;54486;51.442;6.778;2023-05-29T11:08:42;102125.28;;;19.53;52.95
67697;BME280;54486;51.442;6.778;2023-05-29T11:11:32;102128.00;;;19.50;52.30
67697;BME280;54486;51.442;6.778;2023-05-29T11:14:05;102118.34;;;19.49;53.19
67697;BME280;54486;51.442;6.778;2023-05-29T11:19:05;102118.84;;;19.65;51.98
67697;BME280;54486;51.442;6.778;2023-05-29T11:24:25;102118.66;;;19.73;50.60
67697;BME280;54486;51.442;6.778;2023-05-29T11:26:54;102129.22;;;19.74;50.40
67697;BME280;54486;51.442;6.778;2023-05-29T11:29:27;102113.56;;;19.64;50.91
67697;BME280;54486;51.442;6.778;2023-05-29T11:31:58;102115.19;;;19.71;50.78
67697;BME280;54486;51.442;6.778;2023-05-29T11:34:30;102111.34;;;19.84;51.27
67697;BME280;54486;51.442;6.778;2023-05-29T11:37:04;102113.69;;;19.96;49.77
67697;BME280;54486;51.442;6.778;2023-05-29T11:39:36;102113.56;;;20.00;50.08
67697;BME280;54486;51.442;6.778;2023-05-29T11:42:03;102110.63;;;20.11;50.94
67697;BME280;54486;51.442;6.778;2023-05-29T11:44:33;102107.72;;;20.22;50.86
67697;BME280;54486;51.442;6.778;2023-05-29T11:47:04;102113.34;;;20.08;48.72
67697;BME280;54486;51.442;6.778;2023-05-29T11:49:34;102101.94;;;20.06;49.74
67697;BME280;54486;51.442;6.778;2023-05-29T11:52:07;102106.81;;;20.23;50.53
67697;BME280;54486;51.442;6.778;2023-05-29T11:54:43;102096.03;;;20.30;49.11
67697;BME280;54486;51.442;6.778;2023-05-29T11:57:19;102101.13;;;20.38;49.41
67697;BME280;54486;51.442;6.778;2023-05-29T11:59:47;102095.47;;;20.51;49.51
67697;BME280;54486;51.442;6.778;2023-05-29T12:02:15;102094.34;;;20.58;48.36
67697;BME280;54486;51.442;6.778;2023-05-29T12:04:42;102106.94;;;20.83;49.99
67697;BME280;54486;51.442;6.778;2023-05-29T12:07:18;102098.22;;;20.78;47.21
67697;BME280;54486;51.442;6.778;2023-05-29T12:09:45;102098.69;;;20.63;47.76
67697;BME280;54486;51.442;6.778;2023-05-29T12:12:17;102101.91;;;20.74;48.76
67697;BME280;54486;51.442;6.778;2023-05-29T12:14:50;102103.94;;;20.95;46.89
67697;BME280;54486;51.442;6.778;2023-05-29T12:17:19;102102.75;;;21.05;47.44
67697;BME280;54486;51.442;6.778;2023-05-29T12:19:47;102108.91;;;21.36;47.36
67697;BME280;54486;51.442;6.778;2023-05-29T12:22:16;102097.19;;;21.43;45.68
67697;BME280;54486;51.442;6.778;2023-05-29T12:24:43;102101.41;;;21.77;46.87
67697;BME280;54486;51.442;6.778;2023-05-29T12:27:10;102111.78;;;21.84;45.84
67697;BME280;54486;51.442;6.778;2023-05-29T12:29:38;102100.34;;;21.54;45.27
67697;BME280;54486;51.442;6.778;2023-05-29T12:32:09;102109.47;;;21.18;45.30
67697;BME280;54486;51.442;6.778;2023-05-29T12:34:36;102110.47;;;21.14;45.90
67697;BME280;54486;51.442;6.778;2023-05-29T12:37:07;102103.59;;;21.36;45.77
67697;BME280;54486;51.442;6.778;2023-05-29T12:39:40;102100.13;;;21.62;45.71
67697;BME280;54486;51.442;6.778;2023-05-29T12:42:07;102104.78;;;21.82;44.63
67697;BME280;54486;51.442;6.778;2023-05-29T12:44:37;102098.56;;;22.09;45.40
67697;BME280;54486;51.442;6.778;2023-05-29T12:47:05;102105.34;;;21.93;43.45
67697;BME280;54486;51.442;6.778;2023-05-29T12:49:35;102102.34;;;22.28;44.37
67697;BME280;54486;51.442;6.778;2023-05-29T12:52:06;102101.59;;;22.49;43.24
67697;BME280;54486;51.442;6.778;2023-05-29T12:54:39;102102.66;;;22.93;43.77
67697;BME280;54486;51.442;6.778;2023-05-29T12:57:07;102104.69;;;23.10;41.35
67697;BME280;54486;51.442;6.778;2023-05-29T12:59:35;102108.16;;;23.12;41.74
67697;BME280;54486;51.442;6.778;2023-05-29T13:02:02;102100.44;;;23.04;42.04
67697;BME280;54486;51.442;6.778;2023-05-29T13:04:30;102111.97;;;23.05;40.73
67697;BME280;54486;51.442;6.778;2023-05-29T13:06:57;102108.03;;;22.92;41.44
67697;BME280;54486;51.442;6.778;2023-05-29T13:09:25;102104.69;;;23.10;42.37
67697;BME280;54486;51.442;6.778;2023-05-29T13:11:52;102103.94;;;23.06;41.88
67697;BME280;54486;51.442;6.778;2023-05-29T13:14:20;102098.78;;;23.25;41.03
67697;BME280;54486;51.442;6.778;2023-05-29T13:16:47;102107.56;;;23.27;41.23
67697;BME280;54486;51.442;6.778;2023-05-29T13:19:14;102106.56;;;23.30;40.94